EKEB

Esbjerg Airport

Esbjerg, Denmark
METAR EKEB 172050Z AUTO 18004KT 3700NDV FZFG NCD M01/M01 Q1025
Observed Flight Rules
Feb-17 @ 20:50 UTC (40 minutes ago)
Wind Clouds Conditions
180° at 4 knots
  • Clear skies
  • Freezing
  • Fog
Temperatures Readings
Current -1°C / 30°F
Dewpoint -1°C / 30°F
Humidity 100%
Altimeter 30.27" Hg
Pressure 1025 hPa
Elevation 29
METAR EKEB 172050Z AUTO 18004KT 3700NDV FZFG NCD M01/M01 Q1025
Observed Flight Rules
Feb-17 @ 20:50 UTC
(40 minutes ago)
Wind
180° at 4 knots
Clouds
  • Clear skies
Conditions
  • Freezing
  • Fog
Temperature Dewpoint
-1°C / 30°F -1°C / 30°F
Humidity Altimeter Pressure
100% 30.27" Hg 1025 hPa